createdAt,value
2018-05-16T00:00:51.634Z,1015.56
2018-05-16T00:01:51.317Z,1015.59
2018-05-16T00:02:50.988Z,1015.60
2018-05-16T00:03:50.948Z,1015.62
2018-05-16T00:04:50.833Z,1015.62
2018-05-16T00:05:50.803Z,1015.65
2018-05-16T00:07:10.913Z,1015.67
2018-05-16T00:08:11.962Z,1015.67
2018-05-16T00:09:11.401Z,1015.68
2018-05-16T00:10:11.860Z,1015.63
2018-05-16T00:11:11.939Z,1015.66
2018-05-16T00:12:11.983Z,1015.65
2018-05-16T00:13:12.004Z,1015.65
2018-05-16T00:14:32.633Z,1015.63
2018-05-16T00:15:33.245Z,1015.65
2018-05-16T00:16:33.296Z,1015.64
2018-05-16T00:17:33.152Z,1015.66
2018-05-16T00:18:33.064Z,1015.65
2018-05-16T00:19:53.861Z,1015.70
2018-05-16T00:20:53.954Z,1015.75
2018-05-16T00:21:53.603Z,1015.75
2018-05-16T00:22:54.282Z,1015.74
2018-05-16T00:23:53.998Z,1015.76
2018-05-16T00:24:53.597Z,1015.82
2018-05-16T00:25:54.132Z,1015.77
2018-05-16T00:26:54.153Z,1015.81
2018-05-16T00:27:54.312Z,1015.79
2018-05-16T00:28:54.330Z,1015.73
2018-05-16T00:30:14.496Z,1015.60
2018-05-16T00:31:15.135Z,1015.56
2018-05-16T00:32:14.862Z,1015.51
2018-05-16T00:33:14.846Z,1015.47
2018-05-16T00:34:15.417Z,1015.47
2018-05-16T00:35:36.029Z,1015.49
2018-05-16T00:37:17.116Z,1015.50
2018-05-16T00:38:17.824Z,1015.53
2018-05-16T00:39:17.429Z,1015.56
2018-05-16T00:40:17.522Z,1015.60
2018-05-16T00:41:18.430Z,1015.65
2018-05-16T00:42:18.277Z,1015.66
2018-05-16T00:43:17.816Z,1015.67
2018-05-16T00:44:17.821Z,1015.67
2018-05-16T00:45:17.816Z,1015.67
2018-05-16T00:46:17.458Z,1015.65
2018-05-16T00:47:17.856Z,1015.61
2018-05-16T00:48:17.326Z,1015.61
2018-05-16T00:49:18.263Z,1015.58
2018-05-16T00:50:38.568Z,1015.59
2018-05-16T00:51:39.026Z,1015.58
2018-05-16T00:52:59.757Z,1015.53
2018-05-16T00:54:00.746Z,1015.56
2018-05-16T00:55:00.678Z,1015.50
2018-05-16T00:56:00.591Z,1015.53
2018-05-16T00:57:00.031Z,1015.53
2018-05-16T00:58:20.718Z,1015.57
2018-05-16T00:59:21.479Z,1015.57
2018-05-16T01:00:21.307Z,1015.60
2018-05-16T01:01:20.937Z,1015.57
2018-05-16T01:02:21.544Z,1015.58
2018-05-16T01:03:21.559Z,1015.57
2018-05-16T01:04:21.130Z,1015.56
2018-05-16T01:05:21.654Z,1015.56
2018-05-16T01:06:21.240Z,1015.59
2018-05-16T01:07:20.839Z,1015.61
2018-05-16T01:08:21.672Z,1015.65
2018-05-16T01:09:21.704Z,1015.59
2018-05-16T01:10:21.386Z,1015.59
2018-05-16T01:11:21.139Z,1015.61
2018-05-16T01:12:21.234Z,1015.62
2018-05-16T01:13:20.876Z,1015.58
2018-05-16T01:14:21.498Z,1015.61
2018-05-16T01:15:21.314Z,1015.56
2018-05-16T01:16:21.151Z,1015.57
2018-05-16T01:17:21.105Z,1015.57
2018-05-16T01:18:20.666Z,1015.59
2018-05-16T01:19:21.162Z,1015.57
2018-05-16T01:20:21.156Z,1015.58
2018-05-16T01:21:21.583Z,1015.56
2018-05-16T01:22:21.689Z,1015.56
2018-05-16T01:23:21.217Z,1015.53
2018-05-16T01:24:21.047Z,1015.51
2018-05-16T01:25:21.637Z,1015.52
2018-05-16T01:26:21.287Z,1015.49
2018-05-16T01:27:21.265Z,1015.47
2018-05-16T01:28:20.878Z,1015.42
2018-05-16T01:29:21.461Z,1015.42
2018-05-16T01:30:21.032Z,1015.44
2018-05-16T01:31:21.580Z,1015.46
2018-05-16T01:32:21.487Z,1015.48
2018-05-16T01:33:21.292Z,1015.47
2018-05-16T01:34:20.851Z,1015.44
2018-05-16T01:35:33.630Z,1015.45
2018-05-16T01:36:21.123Z,1015.45
2018-05-16T01:37:20.993Z,1015.47
2018-05-16T01:38:21.543Z,1015.43
2018-05-16T01:39:21.131Z,1015.44
2018-05-16T01:40:20.806Z,1015.48
2018-05-16T01:41:21.463Z,1015.53
2018-05-16T01:42:21.080Z,1015.45
2018-05-16T01:43:21.515Z,1015.43
2018-05-16T01:44:21.351Z,1015.45
2018-05-16T01:45:21.297Z,1015.41
2018-05-16T01:46:21.074Z,1015.42
2018-05-16T01:47:21.631Z,1015.44
2018-05-16T01:48:21.196Z,1015.45
2018-05-16T01:49:21.200Z,1015.30
2018-05-16T01:50:21.250Z,1015.49
2018-05-16T01:51:21.095Z,1015.47
2018-05-16T01:53:05.118Z,1015.49
2018-05-16T01:54:06.090Z,1015.50
2018-05-16T01:55:05.828Z,1015.52
2018-05-16T01:56:05.818Z,1015.48
2018-05-16T01:57:05.341Z,1015.51
2018-05-16T01:58:05.921Z,1015.50
2018-05-16T01:59:05.840Z,1015.51
2018-05-16T02:00:26.223Z,1015.51
2018-05-16T02:01:27.276Z,1015.51
2018-05-16T02:03:30.605Z,1015.54
2018-05-16T02:04:31.274Z,1015.55
2018-05-16T02:05:31.167Z,1015.54
2018-05-16T02:07:32.398Z,1015.53
2018-05-16T02:08:33.036Z,1015.54
2018-05-16T02:09:32.887Z,1015.52
2018-05-16T02:10:32.789Z,1015.50
2018-05-16T02:11:33.758Z,1015.52
2018-05-16T02:12:32.822Z,1015.53
2018-05-16T02:13:32.512Z,1015.51
2018-05-16T02:14:53.775Z,1015.50
2018-05-16T02:15:54.842Z,1015.52
2018-05-16T02:16:54.459Z,1015.53
2018-05-16T02:17:54.147Z,1015.52
2018-05-16T02:18:54.190Z,1015.56
2018-05-16T02:19:54.739Z,1015.52
2018-05-16T02:20:54.905Z,1015.54
2018-05-16T02:21:54.562Z,1015.51
2018-05-16T02:22:54.383Z,1015.57
2018-05-16T02:23:54.174Z,1015.58
2018-05-16T02:24:54.212Z,1015.61
2018-05-16T02:25:54.215Z,1015.60
2018-05-16T02:26:54.679Z,1015.63
2018-05-16T02:27:54.454Z,1015.64
2018-05-16T02:28:54.055Z,1015.65
2018-05-16T02:29:54.721Z,1015.64
2018-05-16T02:30:54.813Z,1015.62
2018-05-16T02:31:54.726Z,1015.70
2018-05-16T02:32:54.271Z,1015.74
2018-05-16T02:33:54.272Z,1015.73
2018-05-16T02:34:54.157Z,1015.78
2018-05-16T02:35:54.615Z,1015.77
2018-05-16T02:36:54.240Z,1015.76
2018-05-16T02:37:53.918Z,1015.75
2018-05-16T02:38:54.562Z,1015.78
2018-05-16T02:39:54.413Z,1015.78
2018-05-16T02:41:15.042Z,1015.77
2018-05-16T02:42:16.003Z,1015.74
2018-05-16T02:43:14.630Z,1015.73
2018-05-16T02:44:15.403Z,1015.72
2018-05-16T02:45:15.265Z,1015.74
2018-05-16T02:46:15.138Z,1015.75
2018-05-16T02:47:14.760Z,1015.74
2018-05-16T02:48:56.521Z,1015.74
2018-05-16T02:49:57.184Z,1015.70
2018-05-16T02:51:37.860Z,1015.74
2018-05-16T02:52:38.351Z,1015.75
2018-05-16T02:53:38.394Z,1015.72
2018-05-16T02:54:37.964Z,1015.78
2018-05-16T02:55:38.582Z,1015.78
2018-05-16T02:56:38.157Z,1015.80
2018-05-16T02:57:59.545Z,1015.76
2018-05-16T02:59:00.347Z,1015.72
2018-05-16T02:59:59.871Z,1015.73
2018-05-16T03:00:59.798Z,1015.70
2018-05-16T03:01:59.560Z,1015.70
2018-05-16T03:03:00.215Z,1015.68
2018-05-16T03:03:59.937Z,1015.69
2018-05-16T03:04:59.713Z,1015.70
2018-05-16T03:05:59.725Z,1015.72
2018-05-16T03:07:00.218Z,1015.72
2018-05-16T03:08:00.274Z,1015.73
2018-05-16T03:09:00.330Z,1015.76
2018-05-16T03:09:59.955Z,1015.82
2018-05-16T03:11:20.054Z,1015.83
2018-05-16T03:12:21.395Z,1015.86
2018-05-16T03:13:21.377Z,1015.84
2018-05-16T03:14:21.388Z,1015.84
2018-05-16T03:15:41.697Z,1015.82
2018-05-16T03:16:42.260Z,1015.83
2018-05-16T03:17:42.286Z,1015.86
2018-05-16T03:18:42.398Z,1015.86
2018-05-16T03:19:42.418Z,1015.87
2018-05-16T03:20:42.058Z,1015.91
2018-05-16T03:21:41.817Z,1015.91
2018-05-16T03:22:41.484Z,1015.94
2018-05-16T03:23:42.470Z,1015.96
2018-05-16T03:24:42.065Z,1015.96
2018-05-16T03:25:41.734Z,1015.97
2018-05-16T03:26:42.717Z,1015.94
2018-05-16T03:27:42.307Z,1015.91
2018-05-16T03:28:42.408Z,1015.95
2018-05-16T03:29:42.483Z,1015.99
2018-05-16T03:30:42.285Z,1015.93
2018-05-16T03:31:42.294Z,1015.95
2018-05-16T03:32:42.179Z,1015.95
2018-05-16T03:33:41.957Z,1015.93
2018-05-16T03:34:41.988Z,1015.96
2018-05-16T03:35:41.555Z,1015.96
2018-05-16T03:36:42.114Z,1015.99
2018-05-16T03:38:02.615Z,1016.02
2018-05-16T03:39:03.236Z,1016.03
2018-05-16T03:40:03.291Z,1016.02
2018-05-16T03:41:02.789Z,1016.01
2018-05-16T03:42:02.793Z,1016.03
2018-05-16T03:43:02.932Z,1016.01
2018-05-16T03:44:02.894Z,1016.02
2018-05-16T03:45:03.084Z,1016.02
2018-05-16T03:46:02.727Z,1016.01
2018-05-16T03:47:02.379Z,1016.03
2018-05-16T03:48:03.503Z,1016.03
2018-05-16T03:49:03.561Z,1016.01
2018-05-16T03:50:03.478Z,1016.02
2018-05-16T03:51:03.162Z,1016.00
2018-05-16T03:52:03.357Z,1016.04
2018-05-16T03:53:03.059Z,1016.06
2018-05-16T03:54:03.136Z,1016.07
2018-05-16T03:55:03.211Z,1016.07
2018-05-16T03:56:03.383Z,1016.05
2018-05-16T03:57:03.330Z,1016.06
2018-05-16T03:58:02.973Z,1016.06
2018-05-16T03:59:02.733Z,1016.05
2018-05-16T04:00:02.894Z,1016.04
2018-05-16T04:01:02.558Z,1016.05
2018-05-16T04:02:02.693Z,1016.01
2018-05-16T04:03:02.773Z,1015.99
2018-05-16T04:04:03.098Z,1015.99
2018-05-16T04:05:03.361Z,1016.00
2018-05-16T04:06:02.646Z,1016.02
2018-05-16T04:07:03.447Z,1015.97
2018-05-16T04:08:04.226Z,1015.95
2018-05-16T04:09:02.841Z,1016.00
2018-05-16T04:10:02.710Z,1015.99
2018-05-16T04:11:02.771Z,1015.98
2018-05-16T04:12:04.016Z,1015.99
2018-05-16T04:13:03.189Z,1015.99
2018-05-16T04:14:02.938Z,1015.94
2018-05-16T04:15:02.584Z,1016.01
2018-05-16T04:16:02.679Z,1015.99
2018-05-16T04:17:03.448Z,1015.97
2018-05-16T04:18:02.271Z,1015.96
2018-05-16T04:19:44.691Z,1015.99
2018-05-16T04:20:44.408Z,1015.99
2018-05-16T04:22:05.862Z,1016.04
2018-05-16T04:23:06.547Z,1016.04
2018-05-16T04:24:06.259Z,1016.07
2018-05-16T04:25:06.191Z,1016.10
2018-05-16T04:27:29.026Z,1016.10
2018-05-16T04:28:29.971Z,1016.11
2018-05-16T04:29:30.203Z,1016.12
2018-05-16T04:30:29.970Z,1016.12
2018-05-16T04:31:30.084Z,1016.11
2018-05-16T04:32:50.875Z,1016.06
2018-05-16T04:33:51.106Z,1016.06
2018-05-16T04:34:50.779Z,1016.06
2018-05-16T04:35:50.873Z,1016.07
2018-05-16T04:36:50.566Z,1016.08
2018-05-16T04:37:51.647Z,1016.08
2018-05-16T04:38:52.672Z,1016.08
2018-05-16T04:40:33.601Z,1016.10
2018-05-16T04:41:33.299Z,1016.08
2018-05-16T04:42:34.402Z,1016.11
2018-05-16T04:43:34.416Z,1016.10
2018-05-16T04:44:34.965Z,1016.13
2018-05-16T04:45:55.005Z,1016.15
2018-05-16T04:46:55.111Z,1016.16
2018-05-16T04:47:54.928Z,1016.16
2018-05-16T04:48:54.834Z,1016.21
2018-05-16T04:49:55.521Z,1016.22
2018-05-16T04:51:15.740Z,1016.27
2018-05-16T04:52:16.871Z,1016.28
2018-05-16T04:53:16.513Z,1016.26
2018-05-16T04:54:16.232Z,1016.19
2018-05-16T04:55:16.006Z,1016.19
2018-05-16T04:56:16.081Z,1016.18
2018-05-16T04:57:15.852Z,1016.21
2018-05-16T04:58:16.690Z,1016.24
2018-05-16T04:59:16.480Z,1016.23
2018-05-16T05:00:16.129Z,1016.25
2018-05-16T05:01:16.292Z,1016.25
2018-05-16T05:02:16.123Z,1016.28
2018-05-16T05:03:16.765Z,1016.29
2018-05-16T05:04:16.858Z,1016.26
2018-05-16T05:05:17.051Z,1016.31
2018-05-16T05:06:15.840Z,1016.33
2018-05-16T05:07:16.541Z,1016.34
2018-05-16T05:08:16.684Z,1016.34
2018-05-16T05:09:16.861Z,1016.36
2018-05-16T05:10:16.035Z,1016.40
2018-05-16T05:11:15.722Z,1016.42
2018-05-16T05:12:16.576Z,1016.46
2018-05-16T05:13:16.660Z,1016.43
2018-05-16T05:14:16.793Z,1016.43
2018-05-16T05:15:57.865Z,1016.46
2018-05-16T05:16:59.302Z,1016.45
2018-05-16T05:17:58.237Z,1016.45
2018-05-16T05:18:58.081Z,1016.45
2018-05-16T05:19:59.129Z,1016.45
2018-05-16T05:21:18.814Z,1016.45
2018-05-16T05:22:19.465Z,1016.43
2018-05-16T05:23:19.358Z,1016.36
2018-05-16T05:24:19.175Z,1016.35
2018-05-16T05:25:19.363Z,1016.34
2018-05-16T05:26:19.185Z,1016.31
2018-05-16T05:27:19.329Z,1016.28
2018-05-16T05:28:19.528Z,1016.27
2018-05-16T05:29:19.572Z,1016.28
2018-05-16T05:30:19.543Z,1016.29
2018-05-16T05:31:19.325Z,1016.31
2018-05-16T05:32:18.941Z,1016.35
2018-05-16T05:33:18.818Z,1016.34
2018-05-16T05:34:20.065Z,1016.34
2018-05-16T05:35:18.827Z,1016.32
2018-05-16T05:36:19.619Z,1016.34
2018-05-16T05:37:19.780Z,1016.30
2018-05-16T05:38:19.795Z,1016.36
2018-05-16T05:39:20.032Z,1016.33
2018-05-16T05:40:40.314Z,1016.38
2018-05-16T05:41:40.075Z,1016.36
2018-05-16T05:42:39.879Z,1016.35
2018-05-16T05:43:40.703Z,1016.40
2018-05-16T05:44:40.305Z,1016.41
2018-05-16T05:45:40.182Z,1016.43
2018-05-16T05:46:41.318Z,1016.44
2018-05-16T05:47:41.408Z,1016.41
2018-05-16T05:48:40.552Z,1016.36
2018-05-16T05:49:40.785Z,1016.37
2018-05-16T05:50:40.534Z,1016.41
2018-05-16T05:51:40.613Z,1016.39
2018-05-16T05:52:40.432Z,1016.38
2018-05-16T05:53:40.599Z,1016.38
2018-05-16T05:54:40.820Z,1016.32
2018-05-16T05:55:41.192Z,1016.34
2018-05-16T05:56:40.837Z,1016.32
2018-05-16T05:57:41.096Z,1016.39
2018-05-16T05:58:39.986Z,1016.40
2018-05-16T05:59:40.804Z,1016.44
2018-05-16T06:00:40.514Z,1016.41
2018-05-16T06:01:40.786Z,1016.44
2018-05-16T06:02:40.602Z,1016.43
2018-05-16T06:03:40.521Z,1016.45
2018-05-16T06:05:00.882Z,1016.43
2018-05-16T06:06:02.108Z,1016.43
2018-05-16T06:07:01.344Z,1016.45
2018-05-16T06:08:22.298Z,1016.45
2018-05-16T06:09:22.121Z,1016.44
2018-05-16T06:10:22.389Z,1016.45
2018-05-16T06:11:22.656Z,1016.43
2018-05-16T06:12:22.426Z,1016.43
2018-05-16T06:13:22.657Z,1016.44
2018-05-16T06:14:22.868Z,1016.45
2018-05-16T06:15:23.184Z,1016.47
2018-05-16T06:16:23.644Z,1016.45
2018-05-16T06:17:22.929Z,1016.43
2018-05-16T06:18:22.881Z,1016.48
2018-05-16T06:19:23.213Z,1016.46
2018-05-16T06:20:43.717Z,1016.44
2018-05-16T06:21:44.932Z,1016.48
2018-05-16T06:22:44.170Z,1016.47
2018-05-16T06:24:05.346Z,1016.43
2018-05-16T06:25:05.091Z,1016.44
2018-05-16T06:26:04.983Z,1016.39
2018-05-16T06:27:26.041Z,1016.42
2018-05-16T06:28:27.288Z,1016.41
2018-05-16T06:29:26.232Z,1016.47
2018-05-16T06:30:26.112Z,1016.47
2018-05-16T06:31:30.821Z,1016.48
2018-05-16T06:32:26.618Z,1016.52
2018-05-16T06:33:47.686Z,1016.55
2018-05-16T06:34:49.372Z,1016.54
2018-05-16T06:35:48.108Z,1016.58
2018-05-16T06:36:48.024Z,1016.57
2018-05-16T06:37:48.239Z,1016.61
2018-05-16T06:38:48.239Z,1016.62
2018-05-16T06:39:48.010Z,1016.68
2018-05-16T06:40:48.151Z,1016.65
2018-05-16T06:41:48.031Z,1016.72
2018-05-16T06:42:48.832Z,1016.71
2018-05-16T06:43:47.790Z,1016.69
2018-05-16T06:44:47.563Z,1016.66
2018-05-16T06:45:47.503Z,1016.68
2018-05-16T06:46:48.310Z,1016.69
2018-05-16T06:47:48.377Z,1016.70
2018-05-16T06:48:48.136Z,1016.69
2018-05-16T06:49:48.114Z,1016.73
2018-05-16T06:50:48.043Z,1016.70
2018-05-16T06:51:47.859Z,1016.69
2018-05-16T06:52:48.011Z,1016.66
2018-05-16T06:53:47.889Z,1016.69
2018-05-16T06:54:48.376Z,1016.69
2018-05-16T06:56:08.953Z,1016.73
2018-05-16T06:57:09.853Z,1016.71
2018-05-16T06:58:10.040Z,1016.71
2018-05-16T06:59:52.493Z,1016.67
2018-05-16T07:00:52.404Z,1016.68
2018-05-16T07:01:53.867Z,1016.75
2018-05-16T07:03:13.725Z,1016.80
2018-05-16T07:04:14.692Z,1016.80
2018-05-16T07:05:15.026Z,1016.80
2018-05-16T07:06:14.155Z,1016.78
2018-05-16T07:07:13.949Z,1016.83
2018-05-16T07:08:34.675Z,1016.84
2018-05-16T07:09:36.041Z,1016.85
2018-05-16T07:10:35.177Z,1016.86
2018-05-16T07:11:35.437Z,1016.86
2018-05-16T07:12:35.654Z,1016.85
2018-05-16T07:13:35.956Z,1016.86
2018-05-16T07:14:35.370Z,1016.87
2018-05-16T07:15:35.651Z,1016.86
2018-05-16T07:16:35.939Z,1016.87
2018-05-16T07:17:35.211Z,1016.87
2018-05-16T07:18:35.439Z,1016.87
2018-05-16T07:19:35.291Z,1016.94
2018-05-16T07:20:35.163Z,1016.94
2018-05-16T07:21:35.343Z,1016.95
2018-05-16T07:22:35.118Z,1016.92
2018-05-16T07:23:35.477Z,1016.91
2018-05-16T07:24:35.666Z,1016.97
2018-05-16T07:25:35.625Z,1016.97
2018-05-16T07:26:35.677Z,1016.96
2018-05-16T07:27:35.992Z,1016.96
2018-05-16T07:28:34.882Z,1016.99
2018-05-16T07:29:34.718Z,1017.00
2018-05-16T07:30:36.284Z,1017.03
2018-05-16T07:31:35.025Z,1017.03
2018-05-16T07:32:35.590Z,1017.06
2018-05-16T07:33:35.744Z,1017.04
2018-05-16T07:34:35.932Z,1017.07
2018-05-16T07:35:56.741Z,1017.10
2018-05-16T07:36:56.900Z,1017.07
2018-05-16T07:37:57.052Z,1017.08
2018-05-16T07:38:56.903Z,1017.10
2018-05-16T07:39:56.806Z,1017.12
2018-05-16T07:40:56.914Z,1017.14
2018-05-16T07:41:56.856Z,1017.14
2018-05-16T07:42:56.844Z,1017.16
2018-05-16T07:43:57.348Z,1017.14
2018-05-16T07:44:57.336Z,1017.13
2018-05-16T07:45:57.640Z,1017.14
2018-05-16T07:46:56.890Z,1017.18
2018-05-16T07:47:56.844Z,1017.15
2018-05-16T07:48:57.005Z,1017.14
2018-05-16T07:49:56.960Z,1017.11
2018-05-16T07:50:57.082Z,1017.09
2018-05-16T07:51:56.800Z,1017.09
2018-05-16T07:52:56.646Z,1017.09
2018-05-16T07:54:17.749Z,1017.10
2018-05-16T07:55:17.851Z,1017.02
2018-05-16T07:56:17.746Z,1017.02
2018-05-16T07:57:17.667Z,1017.00
2018-05-16T07:58:38.669Z,1017.02
2018-05-16T07:59:39.278Z,1017.02
2018-05-16T08:00:39.072Z,1017.03
2018-05-16T08:01:38.938Z,1017.00
2018-05-16T08:02:39.357Z,1017.02
2018-05-16T08:03:39.512Z,1017.05
2018-05-16T08:04:40.480Z,1017.08
2018-05-16T08:05:38.886Z,1017.12
2018-05-16T08:06:39.650Z,1017.12
2018-05-16T08:07:39.797Z,1017.10
2018-05-16T08:08:39.231Z,1017.11
2018-05-16T08:09:38.530Z,1017.15
2018-05-16T08:10:38.880Z,1017.13
2018-05-16T08:11:40.319Z,1017.10
2018-05-16T08:12:39.585Z,1017.08
2018-05-16T08:13:39.077Z,1017.13
2018-05-16T08:14:39.946Z,1017.12
2018-05-16T08:15:39.287Z,1017.11
2018-05-16T08:16:39.621Z,1017.08
2018-05-16T08:17:38.953Z,1017.09
2018-05-16T08:18:40.014Z,1017.09
2018-05-16T08:20:01.023Z,1017.03
2018-05-16T08:21:01.058Z,1017.06
2018-05-16T08:22:02.697Z,1017.05
2018-05-16T08:23:24.641Z,1016.96
2018-05-16T08:24:24.015Z,1016.94
2018-05-16T08:25:23.833Z,1016.92
2018-05-16T08:26:24.445Z,1016.92
2018-05-16T08:27:24.001Z,1016.91
2018-05-16T08:28:25.461Z,1016.88
2018-05-16T08:29:24.299Z,1016.88
2018-05-16T08:30:24.697Z,1016.91
2018-05-16T08:31:25.949Z,1016.86
2018-05-16T08:32:23.838Z,1016.84
2018-05-16T08:34:07.828Z,1016.83
2018-05-16T08:35:08.306Z,1016.74
2018-05-16T08:36:08.523Z,1016.69
2018-05-16T08:37:08.456Z,1016.66
2018-05-16T08:38:08.258Z,1016.70
2018-05-16T08:39:10.281Z,1016.67
2018-05-16T08:40:07.681Z,1016.70
2018-05-16T08:41:08.439Z,1016.70
2018-05-16T08:42:07.824Z,1016.68
2018-05-16T08:43:08.775Z,1016.70
2018-05-16T08:44:28.554Z,1016.74
2018-05-16T08:45:28.476Z,1016.74
2018-05-16T08:46:29.660Z,1016.73
2018-05-16T08:47:28.938Z,1016.73
2018-05-16T08:48:29.110Z,1016.73
2018-05-16T08:49:29.157Z,1016.73
2018-05-16T08:50:29.070Z,1016.73
2018-05-16T08:51:29.440Z,1016.72
2018-05-16T08:52:29.855Z,1016.68
2018-05-16T08:53:28.689Z,1016.71
2018-05-16T08:54:28.624Z,1016.66
2018-05-16T08:55:28.766Z,1016.59
2018-05-16T08:57:30.970Z,1016.59
2018-05-16T08:58:31.353Z,1016.59
2018-05-16T08:59:31.216Z,1016.60
2018-05-16T09:00:31.076Z,1016.60
2018-05-16T09:01:31.899Z,1016.62
2018-05-16T09:02:32.359Z,1016.58
2018-05-16T09:03:52.334Z,1016.61
2018-05-16T09:04:52.497Z,1016.61
2018-05-16T09:05:52.322Z,1016.60
2018-05-16T09:06:52.414Z,1016.58
2018-05-16T09:07:52.249Z,1016.65
2018-05-16T09:09:33.830Z,1016.62
2018-05-16T09:10:35.037Z,1016.61
2018-05-16T09:11:34.274Z,1016.63
2018-05-16T09:12:34.632Z,1016.61
2018-05-16T09:13:35.904Z,1016.62
2018-05-16T09:14:55.175Z,1016.65
2018-05-16T09:15:55.151Z,1016.62
2018-05-16T09:16:54.934Z,1016.62
2018-05-16T09:17:55.151Z,1016.62
2018-05-16T09:18:54.984Z,1016.62
2018-05-16T09:19:55.353Z,1016.61
2018-05-16T09:20:55.484Z,1016.63
2018-05-16T09:21:55.471Z,1016.66
2018-05-16T09:22:55.459Z,1016.61
2018-05-16T09:23:55.754Z,1016.60
2018-05-16T09:24:55.935Z,1016.61
2018-05-16T09:25:54.734Z,1016.63
2018-05-16T09:26:55.831Z,1016.63
2018-05-16T09:27:55.102Z,1016.64
2018-05-16T09:28:55.265Z,1016.64
2018-05-16T09:29:56.007Z,1016.69
2018-05-16T09:30:55.181Z,1016.69
2018-05-16T09:31:54.957Z,1016.70
2018-05-16T09:32:55.288Z,1016.72
2018-05-16T09:33:55.449Z,1016.74
2018-05-16T09:34:55.292Z,1016.74
2018-05-16T09:35:55.134Z,1016.76
2018-05-16T09:37:16.082Z,1016.75
2018-05-16T09:38:16.188Z,1016.75
2018-05-16T09:39:37.044Z,1016.76
2018-05-16T09:40:36.793Z,1016.71
2018-05-16T09:41:36.637Z,1016.75
2018-05-16T09:42:37.450Z,1016.73
2018-05-16T09:43:37.828Z,1016.73
2018-05-16T09:44:37.044Z,1016.77
2018-05-16T09:45:37.264Z,1016.76
2018-05-16T09:46:36.892Z,1016.76
2018-05-16T09:47:37.277Z,1016.78
2018-05-16T09:49:18.300Z,1016.80
2018-05-16T09:50:19.386Z,1016.82
2018-05-16T09:51:19.679Z,1016.83
2018-05-16T09:52:19.441Z,1016.83
2018-05-16T09:53:18.997Z,1016.84
2018-05-16T09:54:18.958Z,1016.81
2018-05-16T09:55:18.824Z,1016.84
2018-05-16T09:56:19.325Z,1016.83
2018-05-16T09:57:19.107Z,1016.86
2018-05-16T09:58:19.185Z,1016.83
2018-05-16T09:59:39.925Z,1016.81
2018-05-16T10:00:39.830Z,1016.83
2018-05-16T10:01:39.981Z,1016.81
2018-05-16T10:02:39.943Z,1016.84
2018-05-16T10:03:39.713Z,1016.83
2018-05-16T10:04:40.569Z,1016.79
2018-05-16T10:05:40.914Z,1016.80
2018-05-16T10:06:40.023Z,1016.79
2018-05-16T10:07:40.389Z,1016.79
2018-05-16T10:08:40.614Z,1016.83
2018-05-16T10:10:21.468Z,1016.80
2018-05-16T10:11:21.780Z,1016.82
2018-05-16T10:12:21.606Z,1016.83
2018-05-16T10:13:21.910Z,1016.80
2018-05-16T10:14:21.681Z,1016.58
2018-05-16T10:15:22.147Z,1016.79
2018-05-16T10:16:22.495Z,1016.73
2018-05-16T10:17:21.241Z,1016.68
2018-05-16T10:18:23.281Z,1016.75
2018-05-16T10:19:22.007Z,1016.76
2018-05-16T10:20:22.082Z,1016.74
2018-05-16T10:21:22.135Z,1016.72
2018-05-16T10:22:22.425Z,1016.75
2018-05-16T10:23:21.624Z,1016.78
2018-05-16T10:24:21.628Z,1016.75
2018-05-16T10:25:22.055Z,1016.76
2018-05-16T10:26:42.861Z,1016.74
2018-05-16T10:27:44.756Z,1016.75
2018-05-16T10:28:43.628Z,1016.69
2018-05-16T10:30:04.860Z,1016.68
2018-05-16T10:31:05.681Z,1016.62
2018-05-16T10:32:05.418Z,1016.68
2018-05-16T10:33:05.317Z,1016.62
2018-05-16T10:34:05.599Z,1016.61
2018-05-16T10:35:05.761Z,1016.61
2018-05-16T10:36:04.506Z,1016.61
2018-05-16T10:37:49.653Z,1016.60
2018-05-16T10:38:49.986Z,1016.56
2018-05-16T10:39:50.343Z,1016.55
2018-05-16T10:40:50.472Z,1016.60
2018-05-16T10:41:49.283Z,1016.54
2018-05-16T10:42:50.524Z,1016.60
2018-05-16T10:43:49.913Z,1016.53
2018-05-16T10:45:32.924Z,1016.61
2018-05-16T10:46:33.217Z,1016.59
2018-05-16T10:47:33.318Z,1016.62
2018-05-16T10:48:33.405Z,1016.62
2018-05-16T10:49:54.459Z,1016.63
2018-05-16T10:50:54.312Z,1016.64
2018-05-16T10:51:54.139Z,1016.70
2018-05-16T10:52:54.905Z,1016.70
2018-05-16T10:53:54.552Z,1016.68
2018-05-16T10:54:54.816Z,1016.74
2018-05-16T10:55:54.757Z,1016.67
2018-05-16T10:57:57.717Z,1016.69
2018-05-16T10:58:57.426Z,1016.72
2018-05-16T10:59:58.671Z,1016.74
2018-05-16T11:00:57.968Z,1016.74
2018-05-16T11:01:58.196Z,1016.73
2018-05-16T11:02:57.945Z,1016.74
2018-05-16T11:03:57.743Z,1016.71
2018-05-16T11:04:57.684Z,1016.69
2018-05-16T11:05:58.029Z,1016.75
2018-05-16T11:06:58.162Z,1016.72
2018-05-16T11:07:58.643Z,1016.73
2018-05-16T11:08:57.290Z,1016.72
2018-05-16T11:09:58.608Z,1016.71
2018-05-16T11:10:57.447Z,1016.69
2018-05-16T11:11:58.193Z,1016.71
2018-05-16T11:12:58.070Z,1016.73
2018-05-16T11:14:18.727Z,1016.72
2018-05-16T11:15:18.980Z,1016.74
2018-05-16T11:16:19.739Z,1016.75
2018-05-16T11:17:19.039Z,1016.72
2018-05-16T11:18:19.060Z,1016.79
2018-05-16T11:20:01.045Z,1016.73
2018-05-16T11:21:01.235Z,1016.78
2018-05-16T11:22:22.053Z,1016.78
2018-05-16T11:23:23.271Z,1016.77
2018-05-16T11:24:22.162Z,1016.75
2018-05-16T11:25:22.333Z,1016.72
2018-05-16T11:26:22.502Z,1016.68
2018-05-16T11:28:03.844Z,1016.69
2018-05-16T11:29:04.964Z,1016.69
2018-05-16T11:30:05.180Z,1016.70
2018-05-16T11:31:04.273Z,1016.67
2018-05-16T11:33:07.907Z,1016.68
2018-05-16T11:34:08.143Z,1016.67
2018-05-16T11:35:08.053Z,1016.65
2018-05-16T11:36:07.767Z,1016.68
2018-05-16T11:37:08.119Z,1016.68
2018-05-16T11:38:07.993Z,1016.66
2018-05-16T11:39:08.056Z,1016.64
2018-05-16T11:40:08.378Z,1016.59
2018-05-16T11:41:07.230Z,1016.64
2018-05-16T11:42:48.902Z,1016.61
2018-05-16T11:43:49.811Z,1016.63
2018-05-16T11:44:50.014Z,1016.57
2018-05-16T11:45:48.943Z,1016.59
2018-05-16T11:46:49.760Z,1016.59
2018-05-16T11:47:49.686Z,1016.60
2018-05-16T11:49:32.123Z,1016.59
2018-05-16T11:50:32.043Z,1016.60
2018-05-16T11:52:13.908Z,1016.60
2018-05-16T11:53:15.663Z,1016.54
2018-05-16T11:54:16.892Z,1016.55
2018-05-16T11:55:35.341Z,1016.57
2018-05-16T11:56:35.210Z,1016.57
2018-05-16T11:57:35.446Z,1016.54
2018-05-16T11:58:35.675Z,1016.58
2018-05-16T11:59:35.897Z,1016.56
2018-05-16T12:00:35.240Z,1016.56
2018-05-16T12:01:35.290Z,1016.55
2018-05-16T12:02:56.190Z,1016.55
2018-05-16T12:03:56.160Z,1016.51
2018-05-16T12:04:56.451Z,1016.45
2018-05-16T12:05:56.416Z,1016.53
2018-05-16T12:06:56.820Z,1016.49
2018-05-16T12:07:56.328Z,1016.53
2018-05-16T12:08:56.571Z,1016.49
2018-05-16T12:09:56.780Z,1016.52
2018-05-16T12:10:57.630Z,1016.50
2018-05-16T12:11:56.994Z,1016.50
2018-05-16T12:12:57.874Z,1016.49
2018-05-16T12:14:17.326Z,1016.57
2018-05-16T12:15:38.324Z,1016.56
2018-05-16T12:16:38.380Z,1016.55
2018-05-16T12:17:38.700Z,1016.51
2018-05-16T12:18:39.125Z,1016.53
2018-05-16T12:19:37.934Z,1016.50
2018-05-16T12:20:59.419Z,1016.52
2018-05-16T12:22:22.558Z,1016.48
2018-05-16T12:23:43.893Z,1016.45
2018-05-16T12:24:43.911Z,1016.44
2018-05-16T12:25:44.175Z,1016.42
2018-05-16T12:26:44.584Z,1016.36
2018-05-16T12:27:44.625Z,1016.35
2018-05-16T12:28:43.629Z,1016.35
2018-05-16T12:29:44.522Z,1016.34
2018-05-16T12:30:44.582Z,1016.36
2018-05-16T12:31:43.940Z,1016.30
2018-05-16T12:33:04.712Z,1016.30
2018-05-16T12:34:46.339Z,1016.31
2018-05-16T12:35:47.567Z,1016.32
2018-05-16T12:36:46.259Z,1016.26
2018-05-16T12:37:46.703Z,1016.26
2018-05-16T12:38:46.754Z,1016.23
2018-05-16T12:39:47.105Z,1016.18
2018-05-16T12:40:47.241Z,1016.21
2018-05-16T12:42:08.111Z,1016.19
2018-05-16T12:43:09.330Z,1016.17
2018-05-16T12:44:08.455Z,1016.17
2018-05-16T12:45:29.117Z,1016.13
2018-05-16T12:46:29.706Z,1016.11